Latest Weather Observations for Richmond

IDN60901

Issued at 9:05 am EDT Saturday 1 November 2014 (issued every 10 minutes, with the page automatically refreshed every 10 minutes)

About weather observations | Map of Sydney area stations | Latest observations for Sydney area | Other Formats
Station Details ID: 067105 Name: RICHMOND RAAF Lat: -33.60 Lon: 150.78 Height: 19.0 m
Data from the previous 72 hours. | See also: Recent months at Richmond
Date/Time
EDT
Tmp

°C
App
Tmp
°C
Dew
Point
°C
Rel
Hum
%
Delta-T

°C
Wind Press
QNH
hPa
Press
MSL
hPa
Rain
since
9 am
mm
Dir
 
Spd
km/h
Gust
km/h
Spd
kts
Gust
kts
01/09:00am 29.4 25.8 13.2 37 9.7 N 24 32 13 17 1003.7 1003.6 0.0
01/08:30am 28.4 24.6 12.3 37 9.4 NNW 24 35 13 19 1003.9 1003.8 0.0
01/08:00am 27.6 23.9 12.8 40 8.7 NW 24 32 13 17 1004.0 1003.9 0.0
01/07:30am 26.4 25.0 13.5 45 7.6 N 13 20 7 11 1004.4 1004.3 0.0
01/07:00am 24.2 22.7 13.1 50 6.5 NNE 13 22 7 12 1004.6 1004.5 0.0
01/06:30am 23.0 21.3 12.6 52 5.9 NNE 13 20 7 11 1004.5 1004.4 0.0
01/06:00am 22.8 21.0 12.1 51 6.1 NNE 13 17 7 9 1004.4 1004.3 0.0
01/05:30am 23.5 - 12.2 49 6.4 - - - - - 1004.2 1004.1 0.0
01/05:00am 24.2 - 11.9 46 7.0 - - - - - 1004.1 1004.0 0.0
01/04:30am 24.2 - 11.9 46 7.0 - - - - - 1004.4 1004.3 0.0
01/04:00am 26.3 - 12.0 41 8.2 - - - - - 1004.5 1004.4 0.0
01/03:30am 26.4 - 12.5 42 8.1 - - - - - 1004.8 1004.7 0.0
01/03:00am 25.9 - 12.4 43 7.8 - - - - - 1005.0 1004.9 0.0
01/02:30am 26.8 25.0 12.1 40 8.5 NNE 13 19 7 10 1005.0 1004.9 0.0
01/02:00am 27.2 26.8 11.2 36 9.1 N 4 9 2 5 1004.9 1004.8 0.0
01/01:30am 27.6 23.2 11.6 37 9.2 NW 26 43 14 23 1005.4 1005.3 0.0
01/01:13am 27.2 23.4 12.4 40 8.6 NNW 24 37 13 20 1005.8 1005.7 0.0
01/01:00am 22.2 20.5 11.3 50 6.1 NNE 11 17 6 9 1006.0 1005.9 0.0
01/12:30am 20.7 20.3 12.4 59 4.7 E 6 9 3 5 1006.3 1006.2 0.0
01/12:00am 20.6 20.8 13.1 62 4.3 ENE 4 9 2 5 1006.4 1006.3 0.0
 
Date/Time
EDT
Tmp

°C
App
Tmp
°C
Dew
Point
°C
Rel
Hum
%
Delta-T

°C
Wind Press
QNH
hPa
Press
MSL
hPa
Rain
since
9 am
mm
Dir
 
Spd
km/h
Gust
km/h
Spd
kts
Gust
kts
31/11:30pm 19.7 20.4 13.4 67 3.6 NNW 2 9 1 5 1006.3 1006.2 0.0
31/11:00pm 20.0 21.1 13.5 66 3.7 CALM 0 0 0 0 1006.1 1006.0 0.0
31/10:30pm 21.1 21.8 12.3 57 5.0 CALM 0 0 0 0 1006.3 1006.2 0.0
31/10:00pm 21.8 22.6 12.6 56 5.2 CALM 0 7 0 4 1006.7 1006.6 0.0
31/09:30pm 22.6 21.8 11.0 48 6.4 SW 6 7 3 4 1006.8 1006.7 0.0
31/09:00pm 22.1 22.3 13.2 57 5.1 WSW 4 9 2 5 1006.9 1006.8 0.0
31/08:30pm 23.7 23.7 9.7 41 7.6 CALM 0 0 0 0 1006.5 1006.4 0.0
31/08:00pm 23.7 23.7 9.7 41 7.7 CALM 0 0 0 0 1006.2 1006.1 0.0
31/07:30pm 26.9 26.3 8.8 32 9.9 NE 2 9 1 5 1006.1 1006.0 0.0
31/07:00pm 28.3 25.4 9.6 31 10.4 ENE 15 22 8 12 1005.8 1005.7 0.0
31/06:30pm 29.5 26.6 9.6 29 11.2 ENE 15 20 8 11 1005.6 1005.5 0.0
31/06:00pm 30.1 25.9 9.6 28 11.6 E 22 28 12 15 1005.5 1005.4 0.0
31/05:30pm 32.0 28.6 11.2 28 12.1 E 20 32 11 17 1005.1 1005.0 0.0
31/05:00pm 35.6 31.0 -0.7 10 17.9 NW 13 20 7 11 1005.1 1005.0 0.0
31/04:30pm 35.8 32.2 3.1 13 17.1 NW 11 15 6 8 1005.2 1005.1 0.0
31/04:00pm 36.4 32.9 1.2 11 17.9 NNW 9 19 5 10 1005.4 1005.3 0.0
31/03:30pm 36.0 33.2 2.1 12 17.4 NNW 6 22 3 12 1006.0 1005.9 0.0
31/03:00pm 35.7 30.6 0.7 11 17.6 WNW 17 28 9 15 1006.7 1006.6 0.0
31/02:30pm 35.4 29.1 1.7 12 17.2 WNW 24 30 13 16 1007.3 1007.2 0.0
31/02:00pm 35.7 29.6 3.0 13 17.1 WNW 24 33 13 18 1007.9 1007.9 0.0
31/01:30pm 35.8 29.2 2.0 12 17.3 NNW 26 37 14 20 1008.4 1008.4 0.0
31/01:00pm 34.6 30.3 5.1 16 15.8 N 17 32 9 17 1009.0 1009.0 0.0
31/12:30pm 33.9 31.3 9.2 22 14.0 ENE 13 20 7 11 1009.7 1009.7 0.0
31/12:00pm 31.5 30.3 12.8 32 11.1 E 11 17 6 9 1010.6 1010.6 0.0
31/11:30am 29.0 28.0 12.4 36 9.7 ENE 9 17 5 9 1011.3 1011.3 0.0
31/11:00am 27.1 26.2 12.7 41 8.4 E 9 13 5 7 1012.1 1012.1 0.0
31/10:30am 25.4 25.1 11.6 42 7.8 SSE 4 9 2 5 1012.7 1012.7 0.0
31/10:00am 23.7 23.1 11.7 47 6.8 ESE 6 11 3 6 1013.2 1013.2 0.0
31/09:30am 22.4 21.5 10.5 47 6.5 SE 6 9 3 5 1013.4 1013.4 0.0
31/09:00am 20.6 20.0 10.4 52 5.5 SE 4 7 2 4 1013.5 1013.5 0.0
31/08:30am 19.1 19.0 9.6 54 5.0 CALM 0 0 0 0 1013.5 1013.5 0.0
31/08:00am 17.5 17.5 9.9 61 4.0 CALM 0 0 0 0 1013.3 1013.3 0.0
31/07:30am 16.1 16.6 11.5 74 2.5 CALM 0 0 0 0 1013.3 1013.3 0.0
31/07:00am 13.4 13.7 10.9 85 1.3 CALM 0 0 0 0 1013.2 1013.2 0.0
31/06:30am 11.7 11.7 9.9 89 0.9 CALM 0 0 0 0 1013.1 1013.1 0.0
31/06:00am 11.4 11.5 10.3 93 0.6 CALM 0 0 0 0 1013.2 1013.2 0.0
31/05:30am 11.5 11.4 9.6 88 1.0 CALM 0 0 0 0 1013.1 1013.1 0.0
31/05:00am 12.4 12.3 9.4 82 1.5 CALM 0 0 0 0 1012.8 1012.8 0.0
31/04:30am 13.2 13.1 9.6 79 1.8 CALM 0 0 0 0 1012.7 1012.7 0.0
31/04:00am 13.6 13.7 10.2 80 1.8 CALM 0 0 0 0 1012.7 1012.7 0.0
31/03:30am 13.0 13.0 9.8 81 1.6 CALM 0 0 0 0 1012.6 1012.6 0.0
31/03:00am 13.1 13.1 9.9 81 1.6 CALM 0 0 0 0 1012.6 1012.6 0.0
31/02:30am 14.0 14.1 10.0 77 2.1 CALM 0 0 0 0 1012.8 1012.8 0.0
31/02:00am 14.3 14.5 10.5 78 2.0 CALM 0 0 0 0 1013.0 1013.0 0.0
31/01:30am 14.9 15.6 12.2 84 1.5 CALM 0 0 0 0 1013.3 1013.3 0.0
31/01:00am 15.4 16.2 12.7 84 1.5 CALM 0 0 0 0 1013.4 1013.4 0.0
31/12:30am 16.1 16.9 12.5 79 2.0 CALM 0 0 0 0 1013.5 1013.5 0.0
31/12:00am 17.1 18.0 13.0 77 2.3 CALM 0 0 0 0 1013.6 1013.6 0.0
 
Date/Time
EDT
Tmp

°C
App
Tmp
°C
Dew
Point
°C
Rel
Hum
%
Delta-T

°C
Wind Press
QNH
hPa
Press
MSL
hPa
Rain
since
9 am
mm
Dir
 
Spd
km/h
Gust
km/h
Spd
kts
Gust
kts
30/11:30pm 17.6 18.5 12.9 74 2.6 CALM 0 0 0 0 1013.6 1013.6 0.0
30/11:00pm 18.1 19.0 12.8 71 3.0 CALM 0 4 0 2 1013.6 1013.6 0.0
30/10:30pm 19.0 18.5 12.0 64 3.9 S 6 7 3 4 1013.4 1013.4 0.0
30/10:00pm 20.3 19.5 12.8 62 4.2 ENE 9 13 5 7 1013.1 1013.1 0.0
30/09:30pm 21.6 20.4 12.7 57 5.1 ENE 11 17 6 9 1012.9 1012.9 0.0
30/09:00pm 22.4 20.1 12.9 55 5.4 ENE 17 22 9 12 1012.5 1012.5 0.0
30/08:30pm 23.6 21.0 12.0 48 6.6 NE 17 24 9 13 1012.0 1012.0 0.0
30/08:00pm 27.5 23.7 3.9 22 11.9 WSW 13 24 7 13 1011.4 1011.4 0.0
30/07:30pm 28.0 24.7 4.3 22 12.0 WSW 11 13 6 7 1011.0 1011.0 0.0
30/07:00pm 29.1 24.5 3.9 20 12.8 W 17 20 9 11 1010.7 1010.7 0.0
30/06:30pm 30.3 25.4 4.1 19 13.5 W 19 24 10 13 1010.4 1010.4 0.0
30/06:00pm 31.4 27.1 3.4 17 14.3 W 15 20 8 11 1010.2 1010.2 0.0
30/05:30pm 31.7 26.4 1.9 15 14.9 W 19 26 10 14 1010.0 1010.0 0.0
30/05:00pm 32.1 26.1 1.3 14 15.3 WSW 22 30 12 16 1009.8 1009.8 0.0
30/04:30pm 32.2 27.1 4.1 17 14.6 WNW 20 30 11 16 1009.8 1009.8 0.0
30/04:00pm 32.3 27.4 5.0 18 14.4 W 20 35 11 19 1010.0 1010.0 0.0
30/03:30pm 31.9 25.8 3.0 16 14.7 W 24 41 13 22 1010.3 1010.3 0.0
30/03:00pm 31.7 26.7 4.5 18 14.2 WSW 20 28 11 15 1010.8 1010.8 0.0
30/02:30pm 30.6 27.5 7.1 23 12.7 NW 13 22 7 12 1011.4 1011.4 0.0
30/02:00pm 29.4 27.1 7.3 25 11.9 ENE 9 17 5 9 1011.9 1011.9 0.0
30/01:30pm 28.6 26.8 7.8 27 11.3 NE 7 13 4 7 1012.5 1012.5 0.0
30/01:00pm 27.8 26.3 9.1 31 10.3 NNE 7 15 4 8 1012.8 1012.8 0.0
30/12:30pm 27.6 26.9 9.9 33 9.9 SSE 4 15 2 8 1013.4 1013.4 0.0
30/12:00pm 25.8 24.8 12.3 43 7.8 NNE 9 13 5 7 1014.0 1014.0 0.0
30/11:30am 25.0 24.8 14.8 53 6.1 ENE 9 13 5 7 1014.3 1014.3 0.0
30/11:00am 23.0 22.8 13.5 55 5.5 E 7 13 4 7 1014.9 1014.9 0.0
30/10:30am 22.1 21.8 14.5 62 4.5 E 9 17 5 9 1015.2 1015.2 0.0
30/10:00am 21.2 21.4 14.6 66 3.9 N 7 11 4 6 1015.5 1015.5 0.0
30/09:30am 19.8 20.1 14.6 72 3.0 N 6 9 3 5 1015.7 1015.7 0.0
30/09:00am 18.6 18.8 14.3 76 2.5 NNE 6 11 3 6 1015.8 1015.8 0.0
30/08:30am 17.5 18.3 13.8 79 2.1 NNE 2 7 1 4 1015.9 1015.9 0.0
30/08:00am 15.9 17.0 13.4 85 1.4 CALM 0 2 0 1 1015.8 1015.8 0.0
30/07:30am 14.1 14.9 12.7 91 0.8 CALM 0 0 0 0 1015.7 1015.7 0.0
30/07:00am 13.4 14.3 12.9 97 0.3 CALM 0 0 0 0 1015.6 1015.6 0.0
30/06:55am 13.2 14.1 12.9 98 0.2 CALM 0 0 0 0 1015.5 1015.5 0.0
30/06:45am 12.6 13.3 12.3 98 0.2 CALM 0 0 0 0 1015.4 1015.4 0.0
30/06:30am 12.0 12.5 11.7 98 0.2 CALM 0 0 0 0 1015.4 1015.4 0.0
30/06:26am 12.0 12.5 11.7 98 0.2 CALM 0 0 0 0 1015.3 1015.3 0.0
30/06:00am 11.2 11.5 10.9 98 0.2 CALM 0 0 0 0 1015.1 1015.1 0.0
30/05:30am 11.2 11.5 10.9 98 0.2 CALM 0 0 0 0 1015.0 1015.0 0.0
30/05:08am 11.6 11.9 11.0 96 0.3 CALM 0 0 0 0 1014.9 1014.9 0.0
30/05:05am 11.7 12.1 11.2 97 0.3 CALM 0 0 0 0 1014.9 1014.9 0.0
30/05:00am 12.0 12.5 11.5 97 0.3 CALM 0 0 0 0 1014.9 1014.9 0.0
30/04:35am 12.4 13.0 11.9 97 0.3 CALM 0 0 0 0 1014.7 1014.7 0.0
30/04:30am 12.1 12.6 11.5 96 0.3 CALM 0 0 0 0 1014.8 1014.8 0.0
30/04:00am 12.4 13.0 11.9 97 0.3 CALM 0 0 0 0 1015.0 1015.0 0.0
30/03:49am 12.4 13.0 11.8 96 0.3 CALM 0 0 0 0 1015.1 1015.1 0.0
30/03:30am 12.6 13.2 12.0 96 0.3 CALM 0 0 0 0 1015.2 1015.2 0.0
30/03:28am 12.4 13.0 11.8 96 0.3 CALM 0 0 0 0 1015.2 1015.2 0.0
30/03:27am 12.4 13.0 11.8 96 0.3 CALM 0 0 0 0 1015.2 1015.2 0.0
30/03:25am 12.6 13.2 12.0 96 0.3 CALM 0 0 0 0 1015.2 1015.2 0.0
30/03:15am 12.7 13.4 12.1 96 0.3 CALM 0 0 0 0 1015.4 1015.4 0.0
30/03:00am 13.2 14.0 12.7 97 0.3 CALM 0 0 0 0 1015.4 1015.4 0.0
30/02:30am 12.9 13.5 12.0 94 0.5 CALM 0 0 0 0 1015.6 1015.6 0.0
30/02:00am 13.3 13.2 12.0 92 0.7 WSW 4 6 2 3 1015.8 1015.8 0.0
30/01:53am 13.5 13.4 12.2 92 0.7 WSW 4 7 2 4 1015.8 1015.8 0.0
30/01:30am 14.1 15.1 13.1 94 0.6 CALM 0 0 0 0 1016.0 1016.0 0.0
30/01:12am 14.2 15.2 13.2 94 0.6 CALM 0 0 0 0 1016.3 1016.3 0.0
30/01:00am 14.2 15.1 12.8 91 0.8 CALM 0 0 0 0 1016.3 1016.3 0.0
30/12:30am 14.8 15.8 13.2 90 0.9 CALM 0 0 0 0 1016.6 1016.6 0.0
30/12:00am 15.9 17.1 13.9 88 1.1 CALM 0 0 0 0 1016.8 1016.8 0.0
 
Date/Time
EDT
Tmp

°C
App
Tmp
°C
Dew
Point
°C
Rel
Hum
%
Delta-T

°C
Wind Press
QNH
hPa
Press
MSL
hPa
Rain
since
9 am
mm
Dir
 
Spd
km/h
Gust
km/h
Spd
kts
Gust
kts
29/11:30pm 16.0 17.2 13.8 87 1.2 CALM 0 0 0 0 1016.9 1016.9 0.0
29/11:00pm 16.8 16.7 13.9 83 1.6 NE 7 9 4 5 1016.9 1016.9 0.0
29/10:30pm 16.9 16.4 13.8 82 1.8 ENE 9 11 5 6 1016.9 1016.9 0.0
29/10:00pm 17.5 17.4 13.8 79 2.1 ENE 7 9 4 5 1016.9 1016.9 0.0
29/09:30pm 18.0 17.5 13.9 77 2.3 E 9 13 5 7 1016.9 1016.9 0.0
29/09:00pm 18.3 17.0 13.8 75 2.6 ENE 13 19 7 10 1016.7 1016.7 0.0
29/08:30pm 18.8 17.5 13.6 72 3.0 E 13 17 7 9 1016.3 1016.3 0.0
29/08:00pm 19.4 18.1 13.6 69 3.3 E 13 17 7 9 1016.0 1016.0 0.0
29/07:30pm 20.1 18.8 13.6 66 3.7 E 13 19 7 10 1015.5 1015.5 0.0
29/07:00pm 21.1 19.3 13.3 61 4.5 E 15 20 8 11 1015.1 1015.1 0.0
29/06:30pm 22.2 20.3 14.1 60 4.7 E 17 24 9 13 1014.7 1014.7 0.0
29/06:00pm 22.7 20.2 13.5 56 5.3 E 19 28 10 15 1014.1 1014.1 0.0
29/05:30pm 23.5 20.3 13.1 52 6.0 E 22 30 12 16 1013.5 1013.5 0.0
29/05:00pm 24.3 20.5 12.3 47 6.9 E 24 32 13 17 1013.4 1013.4 0.0
29/04:30pm 25.2 20.9 12.1 44 7.5 E 26 37 14 20 1013.2 1013.2 0.0
29/04:00pm 27.0 24.5 11.1 37 9.0 E 15 28 8 15 1013.2 1013.2 0.0
29/03:30pm 27.1 24.2 8.0 30 10.3 E 13 19 7 10 1013.5 1013.5 0.0
29/03:00pm 26.6 24.1 8.1 31 10.0 E 11 19 6 10 1014.0 1014.0 0.0
29/02:30pm 26.5 24.1 8.5 32 9.8 NE 11 22 6 12 1014.4 1014.4 0.0
29/02:00pm 26.0 22.6 7.6 31 9.8 E 15 22 8 12 1014.8 1014.8 0.0
29/01:30pm 25.7 23.4 9.1 35 9.0 SE 11 19 6 10 1015.3 1015.3 0.0
29/11:00am 23.3 21.4 7.4 36 8.3 WNW 7 15 4 8 1017.2 1017.2 0.0
29/10:30am 23.2 21.5 7.7 37 8.1 NW 6 11 3 6 1017.4 1017.4 0.0
29/10:00am 21.6 19.8 7.1 39 7.4 NE 6 11 3 6 1017.6 1017.6 0.0
29/09:30am 21.3 19.5 7.2 40 7.2 NW 6 9 3 5 1017.4 1017.4 0.0

Latest Capital City Observations: Canberra | Sydney | Melbourne | Brisbane | Adelaide | Perth | Hobart | Darwin

Other Formats:

Comma delimited format used in spreadsheet applications
http://www.bom.gov.au/fwo/IDN60901/IDN60901.95753.axf

JavaScript Object Notation format (JSON) in row-major order
http://www.bom.gov.au/fwo/IDN60901/IDN60901.95753.json